createdAt,value
2022-11-14T00:00:54.622Z,54.28
2022-11-14T00:03:21.095Z,54.97
2022-11-14T00:05:47.813Z,54.13
2022-11-14T00:08:20.333Z,49.78
2022-11-14T00:10:48.683Z,52.08
2022-11-14T00:13:16.103Z,55.72
2022-11-14T00:15:42.845Z,60.63
2022-11-14T00:18:09.484Z,55.13
2022-11-14T00:20:36.247Z,55.78
2022-11-14T00:23:02.720Z,58.90
2022-11-14T00:25:29.149Z,62.70
2022-11-14T00:27:59.120Z,54.55
2022-11-14T00:30:26.122Z,57.38
2022-11-14T00:32:52.546Z,61.70
2022-11-14T00:35:18.990Z,65.25
2022-11-14T00:37:45.426Z,60.40
2022-11-14T00:40:12.061Z,58.03
2022-11-14T00:42:38.524Z,60.95
2022-11-14T00:45:05.551Z,65.10
2022-11-14T00:47:31.943Z,63.55
2022-11-14T00:49:58.341Z,62.47
2022-11-14T00:52:24.797Z,65.35
2022-11-14T00:54:51.194Z,65.28
2022-11-14T00:57:17.617Z,61.40
2022-11-14T00:59:44.066Z,70.95
2022-11-14T01:02:10.452Z,68.78
2022-11-14T01:04:36.881Z,74.00
2022-11-14T01:07:03.363Z,78.30
2022-11-14T01:09:29.889Z,74.28
2022-11-14T01:11:56.451Z,79.43
2022-11-14T01:14:22.890Z,79.47
2022-11-14T01:16:49.448Z,88.93
2022-11-14T01:19:15.883Z,88.30
2022-11-14T01:21:42.334Z,81.05
2022-11-14T01:24:08.873Z,77.50
2022-11-14T01:26:35.283Z,84.18
2022-11-14T01:29:01.730Z,81.57
2022-11-14T01:31:28.136Z,86.43
2022-11-14T01:33:55.049Z,82.10
2022-11-14T01:36:21.628Z,84.55
2022-11-14T01:38:52.775Z,84.95
2022-11-14T01:41:20.038Z,83.30
2022-11-14T01:43:46.495Z,84.95
2022-11-14T01:46:18.816Z,86.10
2022-11-14T01:48:51.164Z,83.40
2022-11-14T01:51:35.917Z,86.35
2022-11-14T01:54:07.225Z,93.65
2022-11-14T01:56:47.723Z,92.53
2022-11-14T01:59:20.126Z,91.43
2022-11-14T02:01:50.481Z,91.63
2022-11-14T02:04:25.542Z,86.10
2022-11-14T02:06:55.362Z,90.05
2022-11-14T02:09:22.231Z,88.63
2022-11-14T02:11:49.714Z,94.63
2022-11-14T02:14:16.134Z,93.05
2022-11-14T02:16:55.489Z,96.72
2022-11-14T02:19:50.161Z,94.60
2022-11-14T02:22:16.885Z,90.32
2022-11-14T02:24:43.797Z,84.28
2022-11-14T02:27:11.636Z,91.50
2022-11-14T02:29:38.103Z,95.45
2022-11-14T02:32:10.338Z,89.45
2022-11-14T02:34:37.540Z,89.82
2022-11-14T02:37:04.045Z,90.78
2022-11-14T02:39:30.565Z,95.47
2022-11-14T02:41:57.057Z,95.72
2022-11-14T02:44:23.586Z,96.43
2022-11-14T02:46:50.007Z,90.22
2022-11-14T02:49:16.457Z,102.45
2022-11-14T02:51:42.905Z,95.90
2022-11-14T02:54:09.372Z,91.90
2022-11-14T02:56:35.902Z,95.93
2022-11-14T02:59:02.559Z,100.70
2022-11-14T03:01:29.185Z,95.15
2022-11-14T03:03:56.234Z,95.50
2022-11-14T03:06:22.635Z,94.15
2022-11-14T03:08:49.050Z,95.40
2022-11-14T03:11:15.490Z,97.45
2022-11-14T03:13:41.960Z,96.95
2022-11-14T03:16:10.778Z,94.97
2022-11-14T03:18:37.483Z,89.18
2022-11-14T03:21:30.277Z,96.05
2022-11-14T03:23:56.682Z,90.15
2022-11-14T03:26:23.187Z,93.97
2022-11-14T03:28:49.562Z,93.78
2022-11-14T03:31:16.210Z,100.32
2022-11-14T03:33:42.616Z,105.88
2022-11-14T03:36:09.112Z,102.70
2022-11-14T03:38:35.918Z,101.18
2022-11-14T03:41:02.498Z,101.00
2022-11-14T03:43:33.947Z,100.32
2022-11-14T03:46:01.501Z,107.72
2022-11-14T03:48:29.077Z,94.07
2022-11-14T03:50:55.906Z,98.95
2022-11-14T03:53:22.872Z,98.57
2022-11-14T03:55:49.576Z,104.30
2022-11-14T03:58:15.944Z,100.85
2022-11-14T04:00:42.526Z,100.50
2022-11-14T04:03:09.085Z,104.60
2022-11-14T04:05:35.786Z,95.75
2022-11-14T04:08:05.309Z,108.78
2022-11-14T04:10:31.806Z,105.13
2022-11-14T04:12:58.250Z,98.70
2022-11-14T04:15:24.686Z,105.65
2022-11-14T04:17:51.372Z,103.78
2022-11-14T04:20:17.754Z,95.18
2022-11-14T04:22:44.231Z,111.78
2022-11-14T04:25:10.684Z,101.68
2022-11-14T04:27:37.086Z,101.15
2022-11-14T04:30:05.135Z,104.38
2022-11-14T04:32:31.759Z,94.57
2022-11-14T04:34:58.149Z,99.25
2022-11-14T04:37:24.665Z,104.30
2022-11-14T04:39:51.094Z,94.85
2022-11-14T04:42:17.512Z,97.28
2022-11-14T04:44:44.056Z,101.28
2022-11-14T04:47:10.512Z,104.88
2022-11-14T04:49:36.923Z,104.03
2022-11-14T04:52:03.390Z,95.85
2022-11-14T04:54:29.782Z,102.93
2022-11-14T04:56:56.179Z,104.22
2022-11-14T04:59:22.599Z,111.80
2022-11-14T05:01:49.148Z,101.85
2022-11-14T05:04:15.857Z,97.80
2022-11-14T05:06:42.372Z,103.32
2022-11-14T05:09:09.637Z,100.88
2022-11-14T05:11:36.037Z,105.85
2022-11-14T05:14:02.679Z,95.00
2022-11-14T05:16:29.191Z,97.93
2022-11-14T05:18:55.630Z,101.45
2022-11-14T05:21:22.126Z,95.68
2022-11-14T05:23:48.546Z,93.70
2022-11-14T05:26:16.901Z,94.38
2022-11-14T05:28:43.397Z,97.80
2022-11-14T05:31:13.531Z,102.65
2022-11-14T05:33:40.023Z,104.15
2022-11-14T05:36:09.230Z,111.72
2022-11-14T05:38:36.073Z,102.10
2022-11-14T05:41:17.152Z,104.13
2022-11-14T05:43:44.163Z,110.20
2022-11-14T05:46:12.705Z,111.22
2022-11-14T05:48:40.023Z,116.30
2022-11-14T05:51:07.960Z,110.40
2022-11-14T05:53:34.971Z,105.07
2022-11-14T05:56:05.023Z,112.25
2022-11-14T05:58:32.908Z,100.57
2022-11-14T06:01:06.712Z,104.68
2022-11-14T06:03:35.488Z,104.03
2022-11-14T06:06:03.501Z,103.43
2022-11-14T06:08:31.756Z,112.43
2022-11-14T06:11:09.442Z,105.28
2022-11-14T06:13:36.468Z,111.32
2022-11-14T06:16:11.866Z,110.63
2022-11-14T06:18:38.665Z,100.22
2022-11-14T06:21:17.322Z,105.25
2022-11-14T06:23:44.861Z,115.78
2022-11-14T06:26:31.877Z,102.50
2022-11-14T06:29:00.141Z,109.18
2022-11-14T06:31:26.908Z,110.35
2022-11-14T06:33:53.645Z,112.05
2022-11-14T06:36:20.229Z,109.07
2022-11-14T06:38:46.649Z,108.38
2022-11-14T06:41:16.118Z,107.25
2022-11-14T06:43:45.181Z,112.20
2022-11-14T06:46:18.473Z,107.53
2022-11-14T06:48:46.352Z,106.50
2022-11-14T06:51:14.104Z,115.78
2022-11-14T06:53:41.337Z,107.88
2022-11-14T06:56:10.598Z,106.32
2022-11-14T06:58:39.745Z,111.93
2022-11-14T07:01:08.311Z,114.18
2022-11-14T07:03:35.188Z,101.22
2022-11-14T07:06:02.494Z,113.32
2022-11-14T07:08:29.267Z,106.30
2022-11-14T07:11:06.701Z,108.68
2022-11-14T07:13:35.002Z,113.15
2022-11-14T07:16:02.193Z,107.43
2022-11-14T07:18:33.672Z,121.57
2022-11-14T07:21:02.896Z,106.32
2022-11-14T07:23:30.984Z,114.05
2022-11-14T07:26:06.882Z,114.22
2022-11-14T07:28:39.391Z,109.63
2022-11-14T07:31:14.555Z,115.93
2022-11-14T07:33:42.292Z,113.32
2022-11-14T07:36:09.461Z,106.80
2022-11-14T07:38:37.652Z,110.00
2022-11-14T07:41:10.554Z,109.93
2022-11-14T07:43:37.392Z,110.45
2022-11-14T07:46:11.709Z,106.90
2022-11-14T07:48:38.485Z,112.88
2022-11-14T07:51:07.348Z,94.57
2022-11-14T07:53:34.279Z,111.65
2022-11-14T07:56:11.561Z,97.80
2022-11-14T07:58:39.478Z,106.18
2022-11-14T08:01:07.486Z,96.68
2022-11-14T08:03:34.563Z,112.22
2022-11-14T08:06:12.639Z,99.32
2022-11-14T08:08:39.075Z,105.40
2022-11-14T08:11:05.667Z,101.50
2022-11-14T08:13:33.795Z,103.35
2022-11-14T08:16:10.822Z,103.40
2022-11-14T08:18:39.144Z,108.72
2022-11-14T08:21:06.267Z,102.25
2022-11-14T08:23:32.699Z,110.45
2022-11-14T08:25:59.834Z,106.40
2022-11-14T08:28:26.515Z,109.80
2022-11-14T08:30:52.933Z,109.80
2022-11-14T08:33:19.348Z,103.53
2022-11-14T08:35:45.759Z,98.85
2022-11-14T08:38:12.176Z,103.55
2022-11-14T08:40:39.829Z,97.18
2022-11-14T08:45:32.695Z,98.70
2022-11-14T08:47:59.103Z,109.53
2022-11-14T08:50:25.589Z,95.75
2022-11-14T08:52:52.296Z,97.00
2022-11-14T08:55:19.970Z,92.72
2022-11-14T08:57:49.583Z,97.70
2022-11-14T09:00:17.239Z,90.15
2022-11-14T09:02:43.705Z,91.07
2022-11-14T09:05:11.055Z,95.45
2022-11-14T09:07:37.568Z,96.88
2022-11-14T09:10:04.714Z,100.32
2022-11-14T09:12:31.242Z,95.32
2022-11-14T09:14:57.665Z,101.30
2022-11-14T09:17:24.140Z,92.75
2022-11-14T09:19:50.623Z,93.72
2022-11-14T09:22:17.131Z,96.50
2022-11-14T09:24:47.314Z,95.47
2022-11-14T09:27:14.094Z,97.97
2022-11-14T09:29:40.714Z,89.57
2022-11-14T09:32:07.139Z,93.88
2022-11-14T09:34:33.637Z,99.25
2022-11-14T09:37:00.037Z,93.20
2022-11-14T09:39:26.430Z,83.63
2022-11-14T09:42:21.563Z,88.78
2022-11-14T09:45:05.956Z,88.72
2022-11-14T09:47:54.595Z,88.90
2022-11-14T09:50:34.038Z,86.93
2022-11-14T09:53:06.668Z,79.93
2022-11-14T09:55:37.222Z,86.32
2022-11-14T09:58:05.055Z,83.40
2022-11-14T10:00:55.924Z,87.32
2022-11-14T10:03:25.054Z,86.18
2022-11-14T10:06:18.843Z,80.65
2022-11-14T10:08:48.346Z,85.43
2022-11-14T10:11:48.944Z,82.28
2022-11-14T10:14:23.427Z,78.22
2022-11-14T10:17:05.360Z,80.70
2022-11-14T10:19:55.872Z,78.75
2022-11-14T10:22:45.665Z,76.68
2022-11-14T10:25:21.274Z,85.53
2022-11-14T10:28:22.588Z,80.65
2022-11-14T10:30:58.839Z,77.85
2022-11-14T10:33:34.477Z,77.47
2022-11-14T10:36:12.196Z,74.80
2022-11-14T10:39:01.473Z,79.60
2022-11-14T10:41:55.080Z,73.68
2022-11-14T10:44:22.758Z,83.57
2022-11-14T10:46:55.886Z,80.07
2022-11-14T10:49:25.843Z,89.43
2022-11-14T10:51:58.696Z,74.70
2022-11-14T10:54:46.391Z,82.45
2022-11-14T10:57:19.653Z,69.28
2022-11-14T10:59:47.250Z,71.95
2022-11-14T11:02:14.122Z,66.50
2022-11-14T11:04:44.888Z,77.28
2022-11-14T11:07:31.361Z,67.77
2022-11-14T11:10:19.311Z,70.22
2022-11-14T11:12:51.186Z,72.85
2022-11-14T11:15:23.529Z,71.20
2022-11-14T11:17:59.559Z,70.07
2022-11-14T11:20:28.852Z,75.43
2022-11-14T11:23:03.452Z,74.85
2022-11-14T11:25:33.016Z,58.55
2022-11-14T11:28:23.575Z,62.45
2022-11-14T11:30:57.057Z,68.03
2022-11-14T11:33:29.698Z,74.20
2022-11-14T11:36:00.516Z,60.33
2022-11-14T11:38:30.166Z,65.15
2022-11-14T11:41:25.832Z,62.25
2022-11-14T11:44:05.710Z,65.85
2022-11-14T11:46:46.926Z,64.43
2022-11-14T11:49:23.617Z,54.35
2022-11-14T11:51:54.618Z,67.30
2022-11-14T11:54:43.798Z,65.25
2022-11-14T11:57:21.239Z,63.65
2022-11-14T11:59:55.465Z,65.43
2022-11-14T12:02:28.570Z,61.65
2022-11-14T12:04:57.511Z,58.60
2022-11-14T12:07:54.932Z,53.00
2022-11-14T12:10:25.793Z,63.78
2022-11-14T12:13:17.091Z,61.30
2022-11-14T12:16:25.221Z,59.45
2022-11-14T12:19:06.537Z,68.38
2022-11-14T12:21:58.924Z,63.97
2022-11-14T12:24:40.560Z,67.40
2022-11-14T12:27:12.972Z,63.28
2022-11-14T12:29:48.038Z,55.20
2022-11-14T12:32:31.172Z,65.40
2022-11-14T12:34:59.739Z,61.78
2022-11-14T12:37:42.779Z,60.78
2022-11-14T12:40:26.904Z,58.92
2022-11-14T12:42:53.417Z,53.78
2022-11-14T12:45:41.236Z,57.22
2022-11-14T12:48:30.092Z,61.40
2022-11-14T12:50:58.213Z,54.58
2022-11-14T12:53:36.374Z,56.10
2022-11-14T12:56:05.789Z,54.92
2022-11-14T12:59:06.052Z,58.28
2022-11-14T13:01:53.978Z,56.65
2022-11-14T13:04:56.257Z,56.08
2022-11-14T13:07:48.702Z,57.83
2022-11-14T13:10:27.944Z,53.50
2022-11-14T13:13:21.668Z,55.10
2022-11-14T13:16:11.987Z,56.53
2022-11-14T13:19:32.179Z,60.15
2022-11-14T13:22:10.832Z,61.33
2022-11-14T13:25:09.605Z,65.22
2022-11-14T13:28:05.826Z,55.78
2022-11-14T13:31:00.615Z,56.67
2022-11-14T13:33:45.061Z,56.38
2022-11-14T13:36:18.370Z,51.85
2022-11-14T13:39:13.669Z,55.60
2022-11-14T13:41:48.358Z,55.80
2022-11-14T13:44:14.853Z,52.50
2022-11-14T13:47:06.045Z,55.17
2022-11-14T13:49:38.692Z,60.85
2022-11-14T13:52:05.580Z,58.10
2022-11-14T13:54:32.542Z,60.80
2022-11-14T13:57:07.056Z,55.88
2022-11-14T13:59:46.192Z,54.28
2022-11-14T14:02:43.579Z,57.15
2022-11-14T14:05:20.758Z,51.25
2022-11-14T14:08:13.241Z,53.45
2022-11-14T14:10:48.445Z,53.47
2022-11-14T14:13:36.626Z,54.15
2022-11-14T14:16:26.976Z,58.42
2022-11-14T14:19:29.664Z,58.88
2022-11-14T14:22:14.049Z,58.55
2022-11-14T14:25:15.512Z,51.30
2022-11-14T14:27:57.117Z,53.13
2022-11-14T14:30:23.693Z,56.45
2022-11-14T14:33:03.736Z,55.97
2022-11-14T14:35:37.254Z,54.60
2022-11-14T14:38:12.182Z,53.60
2022-11-14T14:40:41.251Z,50.47
2022-11-14T14:43:13.548Z,53.83
2022-11-14T14:45:51.512Z,54.35
2022-11-14T14:48:23.349Z,53.60
2022-11-14T14:50:53.124Z,52.80
2022-11-14T14:53:28.431Z,52.47
2022-11-14T14:55:57.657Z,54.63
2022-11-14T14:58:26.931Z,51.47
2022-11-14T15:01:21.026Z,46.40
2022-11-14T15:04:00.961Z,52.88
2022-11-14T15:06:37.722Z,50.85
2022-11-14T15:09:13.820Z,56.63
2022-11-14T15:11:43.751Z,53.10
2022-11-14T15:14:16.542Z,51.70
2022-11-14T15:16:45.118Z,52.90
2022-11-14T15:19:18.300Z,52.35
2022-11-14T15:21:45.112Z,53.15
2022-11-14T15:24:19.943Z,51.78
2022-11-14T15:26:49.777Z,50.22
2022-11-14T15:29:21.441Z,50.08
2022-11-14T15:34:33.755Z,46.30
2022-11-14T15:37:16.438Z,54.33
2022-11-14T15:39:44.664Z,48.58
2022-11-14T15:42:14.979Z,55.03
2022-11-14T15:44:42.955Z,49.17
2022-11-14T15:47:13.286Z,49.60
2022-11-14T15:49:40.072Z,51.35
2022-11-14T15:52:19.728Z,46.97
2022-11-14T15:54:46.120Z,50.20
2022-11-14T15:57:14.990Z,52.85
2022-11-14T15:59:41.520Z,54.58
2022-11-14T16:02:21.625Z,54.65
2022-11-14T16:04:49.913Z,53.50
2022-11-14T16:07:17.237Z,48.92
2022-11-14T16:09:44.030Z,45.58
2022-11-14T16:12:10.533Z,47.47
2022-11-14T16:14:37.469Z,49.13
2022-11-14T16:17:04.251Z,45.53
2022-11-14T16:19:30.787Z,49.45
2022-11-14T16:22:02.790Z,50.83
2022-11-14T16:24:33.884Z,39.28
2022-11-14T16:27:00.786Z,50.67
2022-11-14T16:29:27.286Z,47.63
2022-11-14T16:31:55.174Z,45.85
2022-11-14T16:34:24.576Z,50.03
2022-11-14T16:36:59.017Z,49.45
2022-11-14T16:39:25.668Z,48.35
2022-11-14T16:41:52.154Z,54.45
2022-11-14T16:44:18.837Z,52.17
2022-11-14T16:46:46.282Z,60.28
2022-11-14T16:49:17.544Z,53.22
2022-11-14T16:51:49.480Z,58.33
2022-11-14T16:54:20.252Z,56.40
2022-11-14T16:56:47.995Z,50.22
2022-11-14T16:59:14.779Z,54.58
2022-11-14T17:01:41.443Z,54.33
2022-11-14T17:04:07.931Z,56.60
2022-11-14T17:06:34.366Z,57.17
2022-11-14T17:09:01.075Z,55.60
2022-11-14T17:11:27.936Z,55.33
2022-11-14T17:13:56.607Z,52.25
2022-11-14T17:16:24.026Z,48.53
2022-11-14T17:18:54.702Z,52.75
2022-11-14T17:21:22.145Z,50.88
2022-11-14T17:23:54.565Z,58.13
2022-11-14T17:26:21.580Z,53.20
2022-11-14T17:28:48.057Z,50.40
2022-11-14T17:31:14.503Z,50.70
2022-11-14T17:33:40.938Z,53.15
2022-11-14T17:36:09.994Z,51.63
2022-11-14T17:38:37.796Z,55.25
2022-11-14T17:41:05.930Z,57.97
2022-11-14T17:43:39.617Z,50.25
2022-11-14T17:46:14.126Z,51.35
2022-11-14T17:48:42.655Z,55.58
2022-11-14T17:51:12.308Z,57.22
2022-11-14T17:53:39.317Z,52.53
2022-11-14T17:56:07.539Z,49.40
2022-11-14T17:58:34.172Z,53.83
2022-11-14T18:01:00.787Z,52.33
2022-11-14T18:03:28.152Z,53.65
2022-11-14T18:06:04.972Z,53.70
2022-11-14T18:08:31.681Z,60.15
2022-11-14T18:11:02.134Z,53.85
2022-11-14T18:13:28.607Z,52.45
2022-11-14T18:15:59.812Z,55.20
2022-11-14T18:18:26.215Z,60.08
2022-11-14T18:20:52.647Z,55.30
2022-11-14T18:23:19.160Z,53.90
2022-11-14T18:25:45.877Z,52.35
2022-11-14T18:28:13.192Z,58.08
2022-11-14T18:30:42.025Z,61.42
2022-11-14T18:33:09.139Z,53.53
2022-11-14T18:35:35.668Z,56.00
2022-11-14T18:38:02.180Z,49.78
2022-11-14T18:40:28.610Z,54.17
2022-11-14T18:42:55.166Z,51.95
2022-11-14T18:45:21.603Z,50.78
2022-11-14T18:47:48.019Z,53.83
2022-11-14T18:50:14.560Z,53.13
2022-11-14T18:52:41.005Z,53.53
2022-11-14T18:55:08.040Z,49.83
2022-11-14T18:57:34.554Z,55.13
2022-11-14T19:00:01.025Z,63.00
2022-11-14T19:02:27.525Z,50.67
2022-11-14T19:04:54.028Z,49.80
2022-11-14T19:07:20.648Z,52.65
2022-11-14T19:09:47.129Z,54.10
2022-11-14T19:12:21.593Z,51.97
2022-11-14T19:14:49.980Z,52.45
2022-11-14T19:17:23.829Z,52.15
2022-11-14T19:19:53.651Z,48.17
2022-11-14T19:22:20.955Z,54.65
2022-11-14T19:24:47.532Z,50.50
2022-11-14T19:27:14.392Z,54.15
2022-11-14T19:29:40.859Z,53.10
2022-11-14T19:32:07.671Z,54.15
2022-11-14T19:34:34.327Z,51.97
2022-11-14T19:37:01.440Z,52.53
2022-11-14T19:39:29.120Z,58.38
2022-11-14T19:41:55.687Z,59.50
2022-11-14T19:44:22.157Z,59.80
2022-11-14T19:46:48.654Z,57.80
2022-11-14T19:49:15.654Z,57.03
2022-11-14T19:51:42.338Z,56.83
2022-11-14T19:54:10.224Z,55.42
2022-11-14T19:56:36.815Z,56.38
2022-11-14T19:59:09.686Z,62.38
2022-11-14T20:01:41.535Z,54.75
2022-11-14T20:04:12.135Z,59.78
2022-11-14T20:06:38.912Z,53.65
2022-11-14T20:09:08.141Z,58.65
2022-11-14T20:11:34.795Z,55.95
2022-11-14T20:14:02.717Z,54.75
2022-11-14T20:16:32.073Z,60.08
2022-11-14T20:19:00.507Z,55.25
2022-11-14T20:21:29.913Z,55.65
2022-11-14T20:23:56.853Z,66.97
2022-11-14T20:26:23.889Z,57.30
2022-11-14T20:28:52.834Z,59.03
2022-11-14T20:31:25.715Z,51.42
2022-11-14T20:33:53.624Z,54.15
2022-11-14T20:36:23.862Z,53.72
2022-11-14T20:38:51.253Z,59.03
2022-11-14T20:41:18.096Z,58.53
2022-11-14T20:43:45.038Z,55.05
2022-11-14T20:46:13.971Z,52.35
2022-11-14T20:48:40.663Z,54.25
2022-11-14T20:51:19.256Z,55.85
2022-11-14T20:53:46.269Z,53.50
2022-11-14T20:56:14.148Z,56.47
2022-11-14T20:58:42.261Z,52.50
2022-11-14T21:01:09.568Z,52.00
2022-11-14T21:03:36.582Z,50.35
2022-11-14T21:06:03.661Z,54.30
2022-11-14T21:08:31.042Z,52.80
2022-11-14T21:11:00.771Z,52.58
2022-11-14T21:13:46.530Z,54.97
2022-11-14T21:16:16.224Z,48.67
2022-11-14T21:18:47.738Z,55.05
2022-11-14T21:21:17.788Z,50.20
2022-11-14T21:23:46.128Z,50.42
2022-11-14T21:26:15.408Z,47.75
2022-11-14T21:28:44.588Z,57.50
2022-11-14T21:31:23.135Z,51.88
2022-11-14T21:33:52.826Z,50.97
2022-11-14T21:36:43.872Z,47.75
2022-11-14T21:39:06.910Z,45.42
2022-11-14T21:41:33.696Z,47.25
2022-11-14T21:44:02.364Z,48.15
2022-11-14T21:46:29.186Z,47.65
2022-11-14T21:48:57.261Z,43.67
2022-11-14T21:51:28.487Z,44.15
2022-11-14T21:53:58.836Z,48.67
2022-11-14T21:56:33.324Z,42.75
2022-11-14T21:59:13.893Z,51.17
2022-11-14T22:02:10.124Z,45.67
2022-11-14T22:04:37.124Z,45.33
2022-11-14T22:07:06.726Z,46.58
2022-11-14T22:09:34.415Z,46.72
2022-11-14T22:12:01.706Z,42.65
2022-11-14T22:14:29.521Z,43.63
2022-11-14T22:16:56.556Z,43.47
2022-11-14T22:19:23.347Z,43.28
2022-11-14T22:21:50.298Z,48.38
2022-11-14T22:24:16.722Z,43.72
2022-11-14T22:26:43.261Z,40.40
2022-11-14T22:29:09.898Z,45.28
2022-11-14T22:31:37.548Z,46.95
2022-11-14T22:34:04.449Z,45.67
2022-11-14T22:36:30.925Z,48.90
2022-11-14T22:38:57.655Z,49.30
2022-11-14T22:41:31.924Z,45.35
2022-11-14T22:43:59.625Z,46.75
2022-11-14T22:46:27.163Z,48.08
2022-11-14T22:48:54.296Z,47.13
2022-11-14T22:51:23.201Z,47.78
2022-11-14T22:53:54.917Z,54.97
2022-11-14T22:56:23.570Z,49.33
2022-11-14T22:58:50.701Z,47.25
2022-11-14T23:01:28.237Z,49.95
2022-11-14T23:03:56.784Z,51.30
2022-11-14T23:06:24.250Z,49.13
2022-11-14T23:08:51.362Z,46.58
2022-11-14T23:11:23.851Z,44.63
2022-11-14T23:13:53.325Z,47.75
2022-11-14T23:16:25.382Z,41.58
2022-11-14T23:18:54.955Z,45.13
2022-11-14T23:21:24.229Z,41.97
2022-11-14T23:24:15.382Z,47.22
2022-11-14T23:26:41.828Z,46.85
2022-11-14T23:29:13.083Z,54.90
2022-11-14T23:31:39.540Z,46.05
2022-11-14T23:34:05.937Z,44.28
2022-11-14T23:36:32.361Z,47.67
2022-11-14T23:38:58.780Z,48.47
2022-11-14T23:41:25.806Z,51.63
2022-11-14T23:43:52.427Z,56.72
2022-11-14T23:46:18.981Z,47.53
2022-11-14T23:48:45.394Z,54.58
2022-11-14T23:51:13.506Z,53.60
2022-11-14T23:53:39.953Z,51.70
2022-11-14T23:56:06.628Z,53.70
2022-11-14T23:58:33.094Z,53.15
